sensor_id;sensor_type;location;lat;lon;timestamp;temperature;humidity
7461;DHT22;6757;52.258;12.840;2024-03-07T00:00:38;6.00;99.90
7461;DHT22;6757;52.258;12.840;2024-03-07T00:03:05;6.00;99.90
7461;DHT22;6757;52.258;12.840;2024-03-07T00:05:34;6.00;99.90
7461;DHT22;6757;52.258;12.840;2024-03-07T00:08:02;6.00;99.90
7461;DHT22;6757;52.258;12.840;2024-03-07T00:10:29;6.00;99.90
7461;DHT22;6757;52.258;12.840;2024-03-07T00:12:57;6.10;99.90
7461;DHT22;6757;52.258;12.840;2024-03-07T00:15:25;6.00;99.90
7461;DHT22;6757;52.258;12.840;2024-03-07T00:17:56;6.00;99.90
7461;DHT22;6757;52.258;12.840;2024-03-07T00:20:24;6.00;99.90
7461;DHT22;6757;52.258;12.840;2024-03-07T00:22:51;6.00;99.90
7461;DHT22;6757;52.258;12.840;2024-03-07T00:25:18;6.00;99.90
7461;DHT22;6757;52.258;12.840;2024-03-07T00:27:47;6.00;99.90
7461;DHT22;6757;52.258;12.840;2024-03-07T00:30:14;6.00;99.90
7461;DHT22;6757;52.258;12.840;2024-03-07T00:32:43;6.00;99.90
7461;DHT22;6757;52.258;12.840;2024-03-07T00:35:12;6.00;99.90
7461;DHT22;6757;52.258;12.840;2024-03-07T00:37:39;6.10;99.90
7461;DHT22;6757;52.258;12.840;2024-03-07T00:40:08;6.10;99.90
7461;DHT22;6757;52.258;12.840;2024-03-07T00:42:35;6.00;99.90
7461;DHT22;6757;52.258;12.840;2024-03-07T00:45:05;6.00;99.90
7461;DHT22;6757;52.258;12.840;2024-03-07T00:47:33;5.90;99.90
7461;DHT22;6757;52.258;12.840;2024-03-07T00:50:00;5.90;99.90
7461;DHT22;6757;52.258;12.840;2024-03-07T00:52:29;5.90;99.90
7461;DHT22;6757;52.258;12.840;2024-03-07T00:54:57;6.00;99.90
7461;DHT22;6757;52.258;12.840;2024-03-07T00:57:26;5.90;99.90
7461;DHT22;6757;52.258;12.840;2024-03-07T00:59:54;5.90;99.90
7461;DHT22;6757;52.258;12.840;2024-03-07T01:02:22;5.80;99.90
7461;DHT22;6757;52.258;12.840;2024-03-07T01:04:51;5.80;99.90
7461;DHT22;6757;52.258;12.840;2024-03-07T01:07:18;5.90;99.90
7461;DHT22;6757;52.258;12.840;2024-03-07T01:09:48;5.90;99.90
7461;DHT22;6757;52.258;12.840;2024-03-07T01:12:15;6.10;99.90
7461;DHT22;6757;52.258;12.840;2024-03-07T01:14:42;5.80;99.90
7461;DHT22;6757;52.258;12.840;2024-03-07T01:17:11;5.80;99.90
7461;DHT22;6757;52.258;12.840;2024-03-07T01:19:38;5.60;99.90
7461;DHT22;6757;52.258;12.840;2024-03-07T01:22:06;5.70;99.90
7461;DHT22;6757;52.258;12.840;2024-03-07T01:24:34;5.70;99.90
7461;DHT22;6757;52.258;12.840;2024-03-07T01:27:04;5.60;99.90
7461;DHT22;6757;52.258;12.840;2024-03-07T01:29:31;5.80;99.90
7461;DHT22;6757;52.258;12.840;2024-03-07T01:31:58;5.70;99.90
7461;DHT22;6757;52.258;12.840;2024-03-07T01:34:28;5.70;99.90
7461;DHT22;6757;52.258;12.840;2024-03-07T01:36:55;5.70;99.90
7461;DHT22;6757;52.258;12.840;2024-03-07T01:39:23;6.10;99.90
7461;DHT22;6757;52.258;12.840;2024-03-07T01:41:51;5.70;99.90
7461;DHT22;6757;52.258;12.840;2024-03-07T01:44:20;5.60;99.90
7461;DHT22;6757;52.258;12.840;2024-03-07T01:46:48;5.70;99.90
7461;DHT22;6757;52.258;12.840;2024-03-07T01:49:16;5.70;99.90
7461;DHT22;6757;52.258;12.840;2024-03-07T01:51:43;5.90;99.90
7461;DHT22;6757;52.258;12.840;2024-03-07T01:54:11;5.70;99.90
7461;DHT22;6757;52.258;12.840;2024-03-07T01:56:38;5.70;99.90
7461;DHT22;6757;52.258;12.840;2024-03-07T01:59:09;5.90;99.90
7461;DHT22;6757;52.258;12.840;2024-03-07T02:01:39;5.70;99.90
7461;DHT22;6757;52.258;12.840;2024-03-07T02:04:07;5.70;99.90
7461;DHT22;6757;52.258;12.840;2024-03-07T02:06:34;5.70;99.90
7461;DHT22;6757;52.258;12.840;2024-03-07T02:09:04;5.70;99.90
7461;DHT22;6757;52.258;12.840;2024-03-07T02:11:32;5.80;99.90
7461;DHT22;6757;52.258;12.840;2024-03-07T02:14:00;5.70;99.90
7461;DHT22;6757;52.258;12.840;2024-03-07T02:16:26;5.70;99.90
7461;DHT22;6757;52.258;12.840;2024-03-07T02:18:57;5.80;99.90
7461;DHT22;6757;52.258;12.840;2024-03-07T02:21:26;5.70;99.90
7461;DHT22;6757;52.258;12.840;2024-03-07T02:23:53;5.70;99.90
7461;DHT22;6757;52.258;12.840;2024-03-07T02:26:20;5.70;99.90
7461;DHT22;6757;52.258;12.840;2024-03-07T02:28:47;5.70;99.90
7461;DHT22;6757;52.258;12.840;2024-03-07T02:31:14;6.60;99.90
7461;DHT22;6757;52.258;12.840;2024-03-07T02:33:40;5.70;99.90
7461;DHT22;6757;52.258;12.840;2024-03-07T02:36:07;5.60;99.90
7461;DHT22;6757;52.258;12.840;2024-03-07T02:38:37;5.50;99.90
7461;DHT22;6757;52.258;12.840;2024-03-07T02:41:04;5.70;99.90
7461;DHT22;6757;52.258;12.840;2024-03-07T02:43:31;6.60;99.90
7461;DHT22;6757;52.258;12.840;2024-03-07T02:45:58;5.70;99.90
7461;DHT22;6757;52.258;12.840;2024-03-07T02:48:26;5.80;99.90
7461;DHT22;6757;52.258;12.840;2024-03-07T02:50:52;5.70;99.90
7461;DHT22;6757;52.258;12.840;2024-03-07T02:53:20;5.70;99.90
7461;DHT22;6757;52.258;12.840;2024-03-07T02:55:49;5.80;99.90
7461;DHT22;6757;52.258;12.840;2024-03-07T02:58:17;5.90;99.90
7461;DHT22;6757;52.258;12.840;2024-03-07T03:00:44;5.70;99.90
7461;DHT22;6757;52.258;12.840;2024-03-07T03:03:11;5.70;99.90
7461;DHT22;6757;52.258;12.840;2024-03-07T03:05:38;5.70;99.90
7461;DHT22;6757;52.258;12.840;2024-03-07T03:08:06;5.60;99.90
7461;DHT22;6757;52.258;12.840;2024-03-07T03:10:33;5.60;99.90
7461;DHT22;6757;52.258;12.840;2024-03-07T03:13:04;5.60;99.90
7461;DHT22;6757;52.258;12.840;2024-03-07T03:15:33;5.60;99.90
7461;DHT22;6757;52.258;12.840;2024-03-07T03:18:00;5.70;99.90
7461;DHT22;6757;52.258;12.840;2024-03-07T03:20:28;5.60;99.90
7461;DHT22;6757;52.258;12.840;2024-03-07T03:23:00;5.50;99.90
7461;DHT22;6757;52.258;12.840;2024-03-07T03:25:31;5.50;99.90
7461;DHT22;6757;52.258;12.840;2024-03-07T03:28:00;5.40;99.90
7461;DHT22;6757;52.258;12.840;2024-03-07T03:30:31;5.40;99.90
7461;DHT22;6757;52.258;12.840;2024-03-07T03:32:58;5.40;99.90
7461;DHT22;6757;52.258;12.840;2024-03-07T03:35:26;5.60;99.90
7461;DHT22;6757;52.258;12.840;2024-03-07T03:37:53;5.40;99.90
7461;DHT22;6757;52.258;12.840;2024-03-07T03:40:21;5.30;99.90
7461;DHT22;6757;52.258;12.840;2024-03-07T03:42:48;5.20;99.90
7461;DHT22;6757;52.258;12.840;2024-03-07T03:45:15;5.20;99.90
7461;DHT22;6757;52.258;12.840;2024-03-07T03:47:45;4.90;99.90
7461;DHT22;6757;52.258;12.840;2024-03-07T03:50:13;5.40;99.90
7461;DHT22;6757;52.258;12.840;2024-03-07T03:52:42;5.10;99.90
7461;DHT22;6757;52.258;12.840;2024-03-07T03:55:10;5.00;99.90
7461;DHT22;6757;52.258;12.840;2024-03-07T03:57:39;4.90;99.90
7461;DHT22;6757;52.258;12.840;2024-03-07T04:00:08;4.90;99.90
7461;DHT22;6757;52.258;12.840;2024-03-07T04:02:38;4.80;99.90
7461;DHT22;6757;52.258;12.840;2024-03-07T04:05:08;4.70;99.90
7461;DHT22;6757;52.258;12.840;2024-03-07T04:07:36;4.70;99.90
7461;DHT22;6757;52.258;12.840;2024-03-07T04:10:05;4.70;99.90
7461;DHT22;6757;52.258;12.840;2024-03-07T04:12:33;4.60;99.90
7461;DHT22;6757;52.258;12.840;2024-03-07T04:15:00;4.60;99.90
7461;DHT22;6757;52.258;12.840;2024-03-07T04:17:30;4.50;99.90
7461;DHT22;6757;52.258;12.840;2024-03-07T04:20:00;4.40;99.90
7461;DHT22;6757;52.258;12.840;2024-03-07T04:22:29;4.40;99.90
7461;DHT22;6757;52.258;12.840;2024-03-07T04:24:56;4.40;99.90
7461;DHT22;6757;52.258;12.840;2024-03-07T04:27:23;4.40;99.90
7461;DHT22;6757;52.258;12.840;2024-03-07T04:29:52;4.30;99.90
7461;DHT22;6757;52.258;12.840;2024-03-07T04:32:20;4.30;99.90
7461;DHT22;6757;52.258;12.840;2024-03-07T04:34:48;4.40;99.90
7461;DHT22;6757;52.258;12.840;2024-03-07T04:37:15;4.40;99.90
7461;DHT22;6757;52.258;12.840;2024-03-07T04:39:44;4.10;99.90
7461;DHT22;6757;52.258;12.840;2024-03-07T04:42:11;4.40;99.90
7461;DHT22;6757;52.258;12.840;2024-03-07T04:44:38;4.40;99.90
7461;DHT22;6757;52.258;12.840;2024-03-07T04:47:06;4.40;99.90
7461;DHT22;6757;52.258;12.840;2024-03-07T04:49:34;4.40;99.90
7461;DHT22;6757;52.258;12.840;2024-03-07T04:52:03;4.50;99.90
7461;DHT22;6757;52.258;12.840;2024-03-07T04:54:32;4.40;99.90
7461;DHT22;6757;52.258;12.840;2024-03-07T04:57:02;4.50;99.90
7461;DHT22;6757;52.258;12.840;2024-03-07T04:59:31;4.50;99.90
7461;DHT22;6757;52.258;12.840;2024-03-07T05:01:58;4.40;99.90
7461;DHT22;6757;52.258;12.840;2024-03-07T05:04:27;4.40;99.90
7461;DHT22;6757;52.258;12.840;2024-03-07T05:06:55;4.40;99.90
7461;DHT22;6757;52.258;12.840;2024-03-07T05:09:24;4.40;99.90
7461;DHT22;6757;52.258;12.840;2024-03-07T05:11:54;4.40;99.90
7461;DHT22;6757;52.258;12.840;2024-03-07T05:14:24;4.40;99.90
7461;DHT22;6757;52.258;12.840;2024-03-07T05:16:51;4.40;99.90
7461;DHT22;6757;52.258;12.840;2024-03-07T05:19:30;4.30;99.90
7461;DHT22;6757;52.258;12.840;2024-03-07T05:21:57;4.40;99.90
7461;DHT22;6757;52.258;12.840;2024-03-07T05:24:26;4.30;99.90
7461;DHT22;6757;52.258;12.840;2024-03-07T05:26:53;4.30;99.90
7461;DHT22;6757;52.258;12.840;2024-03-07T05:29:22;4.80;99.90
7461;DHT22;6757;52.258;12.840;2024-03-07T05:31:53;4.30;99.90
7461;DHT22;6757;52.258;12.840;2024-03-07T05:34:20;4.50;99.90
7461;DHT22;6757;52.258;12.840;2024-03-07T05:36:48;4.70;99.90
7461;DHT22;6757;52.258;12.840;2024-03-07T05:39:16;4.40;99.90
7461;DHT22;6757;52.258;12.840;2024-03-07T05:41:44;4.50;99.90
7461;DHT22;6757;52.258;12.840;2024-03-07T05:44:13;4.50;99.90
7461;DHT22;6757;52.258;12.840;2024-03-07T05:46:41;4.50;99.90
7461;DHT22;6757;52.258;12.840;2024-03-07T05:49:14;4.40;99.90
7461;DHT22;6757;52.258;12.840;2024-03-07T05:51:42;4.40;99.90
7461;DHT22;6757;52.258;12.840;2024-03-07T05:54:10;4.40;99.90
7461;DHT22;6757;52.258;12.840;2024-03-07T05:56:39;4.60;99.90
7461;DHT22;6757;52.258;12.840;2024-03-07T05:59:06;4.30;99.90
7461;DHT22;6757;52.258;12.840;2024-03-07T06:01:35;4.20;99.90
7461;DHT22;6757;52.258;12.840;2024-03-07T06:04:03;4.20;99.90
7461;DHT22;6757;52.258;12.840;2024-03-07T06:06:34;4.20;99.90
7461;DHT22;6757;52.258;12.840;2024-03-07T06:09:02;4.10;99.90
7461;DHT22;6757;52.258;12.840;2024-03-07T06:11:33;4.10;99.90
7461;DHT22;6757;52.258;12.840;2024-03-07T06:14:01;4.00;99.90
7461;DHT22;6757;52.258;12.840;2024-03-07T06:16:30;3.90;99.90
7461;DHT22;6757;52.258;12.840;2024-03-07T06:18:58;4.00;99.90
7461;DHT22;6757;52.258;12.840;2024-03-07T06:21:26;3.80;99.90
7461;DHT22;6757;52.258;12.840;2024-03-07T06:23:56;3.80;99.90
7461;DHT22;6757;52.258;12.840;2024-03-07T06:26:25;3.80;99.90
7461;DHT22;6757;52.258;12.840;2024-03-07T06:29:03;3.70;99.90
7461;DHT22;6757;52.258;12.840;2024-03-07T06:31:31;3.70;99.90
7461;DHT22;6757;52.258;12.840;2024-03-07T06:33:58;3.80;99.90
7461;DHT22;6757;52.258;12.840;2024-03-07T06:36:25;3.60;99.90
7461;DHT22;6757;52.258;12.840;2024-03-07T06:38:53;3.60;99.90
7461;DHT22;6757;52.258;12.840;2024-03-07T06:41:22;3.50;99.90
7461;DHT22;6757;52.258;12.840;2024-03-07T06:43:50;3.50;99.90
7461;DHT22;6757;52.258;12.840;2024-03-07T06:46:18;3.30;99.90
7461;DHT22;6757;52.258;12.840;2024-03-07T06:48:46;3.80;99.90
7461;DHT22;6757;52.258;12.840;2024-03-07T06:51:13;3.70;99.90
7461;DHT22;6757;52.258;12.840;2024-03-07T06:53:40;3.50;99.90
7461;DHT22;6757;52.258;12.840;2024-03-07T06:56:07;3.50;99.90
7461;DHT22;6757;52.258;12.840;2024-03-07T06:58:35;3.20;99.90
7461;DHT22;6757;52.258;12.840;2024-03-07T07:01:03;3.50;99.90
7461;DHT22;6757;52.258;12.840;2024-03-07T07:03:36;3.50;99.90
7461;DHT22;6757;52.258;12.840;2024-03-07T07:06:04;3.50;99.90
7461;DHT22;6757;52.258;12.840;2024-03-07T07:08:32;3.60;99.90
7461;DHT22;6757;52.258;12.840;2024-03-07T07:11:00;3.60;99.90
7461;DHT22;6757;52.258;12.840;2024-03-07T07:13:29;3.70;99.90
7461;DHT22;6757;52.258;12.840;2024-03-07T07:16:00;3.70;99.90
7461;DHT22;6757;52.258;12.840;2024-03-07T07:18:29;3.90;99.90
7461;DHT22;6757;52.258;12.840;2024-03-07T07:20:56;3.90;99.90
7461;DHT22;6757;52.258;12.840;2024-03-07T07:23:24;3.90;99.90
7461;DHT22;6757;52.258;12.840;2024-03-07T07:25:52;4.00;99.90
7461;DHT22;6757;52.258;12.840;2024-03-07T07:28:21;4.00;99.90
7461;DHT22;6757;52.258;12.840;2024-03-07T07:30:50;4.00;99.90
7461;DHT22;6757;52.258;12.840;2024-03-07T07:33:19;4.00;99.90
7461;DHT22;6757;52.258;12.840;2024-03-07T07:35:46;4.40;99.90
7461;DHT22;6757;52.258;12.840;2024-03-07T07:38:13;4.00;99.90
7461;DHT22;6757;52.258;12.840;2024-03-07T07:40:41;4.10;99.90
7461;DHT22;6757;52.258;12.840;2024-03-07T07:43:10;4.20;99.90
7461;DHT22;6757;52.258;12.840;2024-03-07T07:45:39;4.20;99.90
7461;DHT22;6757;52.258;12.840;2024-03-07T07:48:07;4.30;99.90
7461;DHT22;6757;52.258;12.840;2024-03-07T07:50:35;4.30;99.90
7461;DHT22;6757;52.258;12.840;2024-03-07T07:53:02;4.40;99.90
7461;DHT22;6757;52.258;12.840;2024-03-07T07:55:34;4.40;99.90
7461;DHT22;6757;52.258;12.840;2024-03-07T07:58:02;4.40;99.90
7461;DHT22;6757;52.258;12.840;2024-03-07T08:00:29;5.40;99.90
7461;DHT22;6757;52.258;12.840;2024-03-07T08:02:58;4.50;99.90
7461;DHT22;6757;52.258;12.840;2024-03-07T08:05:27;4.60;99.90
7461;DHT22;6757;52.258;12.840;2024-03-07T08:07:58;4.70;99.90
7461;DHT22;6757;52.258;12.840;2024-03-07T08:10:28;4.60;99.90
7461;DHT22;6757;52.258;12.840;2024-03-07T08:12:55;4.70;99.90
7461;DHT22;6757;52.258;12.840;2024-03-07T08:15:23;4.70;99.90
7461;DHT22;6757;52.258;12.840;2024-03-07T08:17:53;5.20;99.90
7461;DHT22;6757;52.258;12.840;2024-03-07T08:20:21;4.80;99.90
7461;DHT22;6757;52.258;12.840;2024-03-07T08:22:50;5.00;99.90
7461;DHT22;6757;52.258;12.840;2024-03-07T08:25:23;5.10;99.90
7461;DHT22;6757;52.258;12.840;2024-03-07T08:27:53;4.90;99.90
7461;DHT22;6757;52.258;12.840;2024-03-07T08:30:22;5.00;99.90
7461;DHT22;6757;52.258;12.840;2024-03-07T08:32:50;5.00;99.90
7461;DHT22;6757;52.258;12.840;2024-03-07T08:35:18;4.80;99.90
7461;DHT22;6757;52.258;12.840;2024-03-07T08:37:47;5.10;99.90
7461;DHT22;6757;52.258;12.840;2024-03-07T08:40:15;5.30;99.90
7461;DHT22;6757;52.258;12.840;2024-03-07T08:42:49;5.20;99.90
7461;DHT22;6757;52.258;12.840;2024-03-07T08:45:17;5.20;99.90
7461;DHT22;6757;52.258;12.840;2024-03-07T08:47:46;5.30;99.90
7461;DHT22;6757;52.258;12.840;2024-03-07T08:50:14;5.30;99.90
7461;DHT22;6757;52.258;12.840;2024-03-07T08:52:43;5.40;99.90
7461;DHT22;6757;52.258;12.840;2024-03-07T08:55:12;5.40;99.90
7461;DHT22;6757;52.258;12.840;2024-03-07T08:57:42;5.60;99.90
7461;DHT22;6757;52.258;12.840;2024-03-07T09:00:14;5.50;99.90
7461;DHT22;6757;52.258;12.840;2024-03-07T09:02:48;5.50;99.90
7461;DHT22;6757;52.258;12.840;2024-03-07T09:05:17;5.60;99.90
7461;DHT22;6757;52.258;12.840;2024-03-07T09:07:44;5.60;99.90
7461;DHT22;6757;52.258;12.840;2024-03-07T09:10:12;5.20;99.90
7461;DHT22;6757;52.258;12.840;2024-03-07T09:12:40;5.70;99.90
7461;DHT22;6757;52.258;12.840;2024-03-07T09:15:08;5.70;99.90
7461;DHT22;6757;52.258;12.840;2024-03-07T09:17:38;5.70;99.90
7461;DHT22;6757;52.258;12.840;2024-03-07T09:20:07;5.80;99.90
7461;DHT22;6757;52.258;12.840;2024-03-07T09:22:39;5.80;99.90
7461;DHT22;6757;52.258;12.840;2024-03-07T09:25:08;5.70;99.90
7461;DHT22;6757;52.258;12.840;2024-03-07T09:27:35;5.80;99.90
7461;DHT22;6757;52.258;12.840;2024-03-07T09:30:03;5.90;99.90
7461;DHT22;6757;52.258;12.840;2024-03-07T09:32:38;5.90;99.90
7461;DHT22;6757;52.258;12.840;2024-03-07T09:35:07;5.90;99.90
7461;DHT22;6757;52.258;12.840;2024-03-07T09:37:38;5.90;99.90
7461;DHT22;6757;52.258;12.840;2024-03-07T09:40:07;6.00;99.90
7461;DHT22;6757;52.258;12.840;2024-03-07T09:42:41;6.00;99.90
7461;DHT22;6757;52.258;12.840;2024-03-07T09:45:14;6.10;99.90
7461;DHT22;6757;52.258;12.840;2024-03-07T09:47:47;6.10;99.90
7461;DHT22;6757;52.258;12.840;2024-03-07T09:50:18;6.20;99.90
7461;DHT22;6757;52.258;12.840;2024-03-07T09:52:48;6.30;99.90
7461;DHT22;6757;52.258;12.840;2024-03-07T09:55:16;6.30;99.90
7461;DHT22;6757;52.258;12.840;2024-03-07T09:57:46;6.30;99.90
7461;DHT22;6757;52.258;12.840;2024-03-07T10:00:17;6.30;99.90
7461;DHT22;6757;52.258;12.840;2024-03-07T10:02:56;6.40;99.90
7461;DHT22;6757;52.258;12.840;2024-03-07T10:05:26;6.40;99.90
7461;DHT22;6757;52.258;12.840;2024-03-07T10:07:55;6.50;99.90
7461;DHT22;6757;52.258;12.840;2024-03-07T10:10:22;6.60;99.90
7461;DHT22;6757;52.258;12.840;2024-03-07T10:12:50;6.80;99.90
7461;DHT22;6757;52.258;12.840;2024-03-07T10:15:18;6.90;99.90
7461;DHT22;6757;52.258;12.840;2024-03-07T10:17:46;7.30;99.90
7461;DHT22;6757;52.258;12.840;2024-03-07T10:20:18;6.90;99.90
7461;DHT22;6757;52.258;12.840;2024-03-07T10:22:47;7.00;99.90
7461;DHT22;6757;52.258;12.840;2024-03-07T10:25:17;7.00;99.90
7461;DHT22;6757;52.258;12.840;2024-03-07T10:27:45;7.00;99.90
7461;DHT22;6757;52.258;12.840;2024-03-07T10:30:14;7.00;99.90
7461;DHT22;6757;52.258;12.840;2024-03-07T10:32:46;7.10;99.90
7461;DHT22;6757;52.258;12.840;2024-03-07T10:35:20;7.00;99.90
7461;DHT22;6757;52.258;12.840;2024-03-07T10:37:49;7.00;99.90
7461;DHT22;6757;52.258;12.840;2024-03-07T10:40:16;7.00;99.90
7461;DHT22;6757;52.258;12.840;2024-03-07T10:42:48;6.90;99.90
7461;DHT22;6757;52.258;12.840;2024-03-07T10:45:19;6.90;99.90
7461;DHT22;6757;52.258;12.840;2024-03-07T10:47:51;6.90;99.90
7461;DHT22;6757;52.258;12.840;2024-03-07T10:50:31;6.90;99.90
7461;DHT22;6757;52.258;12.840;2024-03-07T10:53:07;6.90;99.90
7461;DHT22;6757;52.258;12.840;2024-03-07T10:55:47;6.90;99.90
7461;DHT22;6757;52.258;12.840;2024-03-07T10:58:27;6.90;99.90
7461;DHT22;6757;52.258;12.840;2024-03-07T11:01:04;7.00;99.90
7461;DHT22;6757;52.258;12.840;2024-03-07T11:03:34;7.00;99.90
7461;DHT22;6757;52.258;12.840;2024-03-07T11:06:03;7.40;99.90
7461;DHT22;6757;52.258;12.840;2024-03-07T11:08:32;7.10;99.90
7461;DHT22;6757;52.258;12.840;2024-03-07T11:10:59;7.10;99.90
7461;DHT22;6757;52.258;12.840;2024-03-07T11:13:28;7.10;99.90
7461;DHT22;6757;52.258;12.840;2024-03-07T11:15:56;7.10;99.90
7461;DHT22;6757;52.258;12.840;2024-03-07T11:18:26;7.10;99.90
7461;DHT22;6757;52.258;12.840;2024-03-07T11:20:53;6.90;99.90
7461;DHT22;6757;52.258;12.840;2024-03-07T11:23:28;7.20;99.90
7461;DHT22;6757;52.258;12.840;2024-03-07T11:26:01;7.30;99.90
7461;DHT22;6757;52.258;12.840;2024-03-07T11:28:33;7.30;99.90
7461;DHT22;6757;52.258;12.840;2024-03-07T11:31:16;7.40;99.90
7461;DHT22;6757;52.258;12.840;2024-03-07T11:34:11;7.40;99.90
7461;DHT22;6757;52.258;12.840;2024-03-07T11:36:43;7.40;99.90
7461;DHT22;6757;52.258;12.840;2024-03-07T11:39:42;7.40;99.90
7461;DHT22;6757;52.258;12.840;2024-03-07T11:42:19;7.50;99.90
7461;DHT22;6757;52.258;12.840;2024-03-07T11:44:48;7.50;99.90
7461;DHT22;6757;52.258;12.840;2024-03-07T11:47:17;7.60;99.90
7461;DHT22;6757;52.258;12.840;2024-03-07T11:49:44;7.60;99.90
7461;DHT22;6757;52.258;12.840;2024-03-07T11:52:14;7.70;99.90
7461;DHT22;6757;52.258;12.840;2024-03-07T11:54:43;7.70;99.90
7461;DHT22;6757;52.258;12.840;2024-03-07T11:57:12;7.90;99.90
7461;DHT22;6757;52.258;12.840;2024-03-07T11:59:42;8.00;99.90
7461;DHT22;6757;52.258;12.840;2024-03-07T12:02:12;8.10;99.90
7461;DHT22;6757;52.258;12.840;2024-03-07T12:04:40;8.20;99.90
7461;DHT22;6757;52.258;12.840;2024-03-07T12:07:08;8.40;99.90
7461;DHT22;6757;52.258;12.840;2024-03-07T12:09:37;8.50;99.90
7461;DHT22;6757;52.258;12.840;2024-03-07T12:12:07;8.60;99.90
7461;DHT22;6757;52.258;12.840;2024-03-07T12:14:34;8.70;99.90
7461;DHT22;6757;52.258;12.840;2024-03-07T12:17:01;8.80;99.90
7461;DHT22;6757;52.258;12.840;2024-03-07T12:19:30;8.90;99.90
7461;DHT22;6757;52.258;12.840;2024-03-07T12:22:00;9.00;99.90
7461;DHT22;6757;52.258;12.840;2024-03-07T12:24:29;9.00;99.90
7461;DHT22;6757;52.258;12.840;2024-03-07T12:27:08;9.10;99.90
7461;DHT22;6757;52.258;12.840;2024-03-07T12:29:36;9.10;99.90
7461;DHT22;6757;52.258;12.840;2024-03-07T12:32:05;9.10;99.90
7461;DHT22;6757;52.258;12.840;2024-03-07T12:34:34;9.20;99.90
7461;DHT22;6757;52.258;12.840;2024-03-07T12:37:06;9.20;99.90
7461;DHT22;6757;52.258;12.840;2024-03-07T12:39:35;9.30;99.90
7461;DHT22;6757;52.258;12.840;2024-03-07T12:42:14;9.40;99.90
7461;DHT22;6757;52.258;12.840;2024-03-07T12:44:42;9.60;99.90
7461;DHT22;6757;52.258;12.840;2024-03-07T12:47:11;9.90;99.90
7461;DHT22;6757;52.258;12.840;2024-03-07T12:49:38;10.20;99.90
7461;DHT22;6757;52.258;12.840;2024-03-07T12:52:06;10.60;99.90
7461;DHT22;6757;52.258;12.840;2024-03-07T12:54:35;11.10;99.90
7461;DHT22;6757;52.258;12.840;2024-03-07T12:57:04;11.60;99.90
7461;DHT22;6757;52.258;12.840;2024-03-07T12:59:34;12.20;99.90
7461;DHT22;6757;52.258;12.840;2024-03-07T13:02:03;12.70;99.90
7461;DHT22;6757;52.258;12.840;2024-03-07T13:04:31;13.20;99.90
7461;DHT22;6757;52.258;12.840;2024-03-07T13:06:58;13.70;99.90
7461;DHT22;6757;52.258;12.840;2024-03-07T13:09:29;13.90;99.90
7461;DHT22;6757;52.258;12.840;2024-03-07T13:11:58;14.30;99.90
7461;DHT22;6757;52.258;12.840;2024-03-07T13:14:28;14.40;99.80
7461;DHT22;6757;52.258;12.840;2024-03-07T13:17:00;14.60;99.00
7461;DHT22;6757;52.258;12.840;2024-03-07T13:19:28;14.70;97.90
7461;DHT22;6757;52.258;12.840;2024-03-07T13:21:56;14.80;96.90
7461;DHT22;6757;52.258;12.840;2024-03-07T13:24:25;14.90;96.10
7461;DHT22;6757;52.258;12.840;2024-03-07T13:26:54;14.90;95.20
7461;DHT22;6757;52.258;12.840;2024-03-07T13:29:21;15.00;94.70
7461;DHT22;6757;52.258;12.840;2024-03-07T13:31:51;15.00;94.30
7461;DHT22;6757;52.258;12.840;2024-03-07T13:34:23;15.20;94.20
7461;DHT22;6757;52.258;12.840;2024-03-07T13:36:51;15.50;93.50
7461;DHT22;6757;52.258;12.840;2024-03-07T13:39:18;15.60;92.60
7461;DHT22;6757;52.258;12.840;2024-03-07T13:41:45;15.60;92.10
7461;DHT22;6757;52.258;12.840;2024-03-07T13:44:13;15.60;91.60
7461;DHT22;6757;52.258;12.840;2024-03-07T13:46:40;15.60;91.00
7461;DHT22;6757;52.258;12.840;2024-03-07T13:49:08;15.70;90.60
7461;DHT22;6757;52.258;12.840;2024-03-07T13:51:41;15.90;90.20
7461;DHT22;6757;52.258;12.840;2024-03-07T13:54:18;16.20;89.70
7461;DHT22;6757;52.258;12.840;2024-03-07T13:57:14;16.40;88.50
7461;DHT22;6757;52.258;12.840;2024-03-07T14:00:00;16.60;87.10
7461;DHT22;6757;52.258;12.840;2024-03-07T14:02:59;16.80;85.70
7461;DHT22;6757;52.258;12.840;2024-03-07T14:05:56;17.00;84.60
7461;DHT22;6757;52.258;12.840;2024-03-07T14:08:55;17.40;83.80
7461;DHT22;6757;52.258;12.840;2024-03-07T14:12:13;17.50;82.60
7461;DHT22;6757;52.258;12.840;2024-03-07T14:15:20;17.60;81.20
7461;DHT22;6757;52.258;12.840;2024-03-07T14:18:24;17.80;79.40
7461;DHT22;6757;52.258;12.840;2024-03-07T14:21:47;17.90;78.10
7461;DHT22;6757;52.258;12.840;2024-03-07T14:24:31;18.20;76.50
7461;DHT22;6757;52.258;12.840;2024-03-07T14:27:27;18.60;75.30
7461;DHT22;6757;52.258;12.840;2024-03-07T14:30:19;19.00;73.40
7461;DHT22;6757;52.258;12.840;2024-03-07T14:32:51;19.40;74.10
7461;DHT22;6757;52.258;12.840;2024-03-07T14:35:30;19.80;74.30
7461;DHT22;6757;52.258;12.840;2024-03-07T14:38:06;20.10;72.60
7461;DHT22;6757;52.258;12.840;2024-03-07T14:40:34;20.30;70.20
7461;DHT22;6757;52.258;12.840;2024-03-07T14:43:04;20.20;68.00
7461;DHT22;6757;52.258;12.840;2024-03-07T14:45:36;20.10;66.60
7461;DHT22;6757;52.258;12.840;2024-03-07T14:48:07;19.80;65.60
7461;DHT22;6757;52.258;12.840;2024-03-07T14:50:36;19.70;65.20
7461;DHT22;6757;52.258;12.840;2024-03-07T14:53:04;19.40;64.80
7461;DHT22;6757;52.258;12.840;2024-03-07T14:55:34;19.10;64.00
7461;DHT22;6757;52.258;12.840;2024-03-07T14:58:02;18.80;63.00
7461;DHT22;6757;52.258;12.840;2024-03-07T15:00:31;18.80;62.60
7461;DHT22;6757;52.258;12.840;2024-03-07T15:02:59;18.60;62.30
7461;DHT22;6757;52.258;12.840;2024-03-07T15:05:26;18.50;62.00
7461;DHT22;6757;52.258;12.840;2024-03-07T15:07:54;18.50;61.90
7461;DHT22;6757;52.258;12.840;2024-03-07T15:10:26;18.40;61.70
7461;DHT22;6757;52.258;12.840;2024-03-07T15:12:56;18.30;61.40
7461;DHT22;6757;52.258;12.840;2024-03-07T15:15:23;18.20;61.70
7461;DHT22;6757;52.258;12.840;2024-03-07T15:17:53;18.20;63.20
7461;DHT22;6757;52.258;12.840;2024-03-07T15:20:22;18.20;64.50
7461;DHT22;6757;52.258;12.840;2024-03-07T15:22:53;18.30;64.60
7461;DHT22;6757;52.258;12.840;2024-03-07T15:25:21;18.30;64.00
7461;DHT22;6757;52.258;12.840;2024-03-07T15:27:50;18.20;63.40
7461;DHT22;6757;52.258;12.840;2024-03-07T15:30:19;18.00;62.80
7461;DHT22;6757;52.258;12.840;2024-03-07T15:32:47;17.80;62.70
7461;DHT22;6757;52.258;12.840;2024-03-07T15:35:16;17.40;62.60
7461;DHT22;6757;52.258;12.840;2024-03-07T15:37:48;16.90;62.60
7461;DHT22;6757;52.258;12.840;2024-03-07T15:40:17;16.30;62.90
7461;DHT22;6757;52.258;12.840;2024-03-07T15:42:47;15.70;63.70
7461;DHT22;6757;52.258;12.840;2024-03-07T15:45:19;15.30;64.10
7461;DHT22;6757;52.258;12.840;2024-03-07T15:47:49;14.80;64.20
7461;DHT22;6757;52.258;12.840;2024-03-07T15:50:19;14.30;66.40
7461;DHT22;6757;52.258;12.840;2024-03-07T15:52:48;13.90;66.30
7461;DHT22;6757;52.258;12.840;2024-03-07T15:55:19;13.20;66.20
7461;DHT22;6757;52.258;12.840;2024-03-07T15:57:51;13.00;66.70
7461;DHT22;6757;52.258;12.840;2024-03-07T16:00:22;12.60;67.00
7461;DHT22;6757;52.258;12.840;2024-03-07T16:02:53;12.10;67.30
7461;DHT22;6757;52.258;12.840;2024-03-07T16:05:22;11.70;67.80
7461;DHT22;6757;52.258;12.840;2024-03-07T16:07:50;11.30;68.30
7461;DHT22;6757;52.258;12.840;2024-03-07T16:10:19;11.00;68.90
7461;DHT22;6757;52.258;12.840;2024-03-07T16:12:50;10.80;69.40
7461;DHT22;6757;52.258;12.840;2024-03-07T16:15:18;10.60;69.90